Terminal Aerodrome Forecast
Issued by NWS

Home | Current Version | Previous Version | Graphics & Text | Print | Product List | Glossary On
Versions: 1 2 3 4 5 6 7 8 9 10 11 12 13 14 15 16 17 18 19 20 21 22 23 24 25 26 27 28 29 30
000
FTUS43 KABR 011732
TAFATY
TAF
KATY 011732Z 0118/0218 34008KT P6SM OVC007
      TEMPO 0118/0122 OVC010
     FM012200 32007KT P6SM OVC010
     FM021000 33004KT P6SM OVC008
     FM021400 34004KT P6SM OVC010=

USA.gov is the U.S. government's official web portal to all federal, state and local government web resources and services.